createdAt,value
2023-02-20T00:01:54.577Z,-1.26
2023-02-20T00:04:25.712Z,-1.16
2023-02-20T00:06:56.130Z,-0.75
2023-02-20T00:09:24.517Z,-0.76
2023-02-20T00:11:59.846Z,-0.86
2023-02-20T00:14:32.529Z,-1.03
2023-02-20T00:17:01.618Z,-1.23
2023-02-20T00:19:30.820Z,-1.37
2023-02-20T00:22:00.526Z,-1.47
2023-02-20T00:24:29.348Z,-1.12
2023-02-20T00:26:57.591Z,-0.83
2023-02-20T00:29:26.788Z,-0.79
2023-02-20T00:31:57.604Z,-0.91
2023-02-20T00:34:27.950Z,-1.21
2023-02-20T00:37:01.246Z,-1.33
2023-02-20T00:39:32.077Z,-1.46
2023-02-20T00:42:00.476Z,-1.56
2023-02-20T00:44:33.962Z,-1.29
2023-02-20T00:47:02.651Z,-1.05
2023-02-20T00:49:31.666Z,-1.14
2023-02-20T00:52:10.780Z,-1.29
2023-02-20T00:54:39.146Z,-1.49
2023-02-20T00:57:08.693Z,-1.57
2023-02-20T00:59:37.043Z,-1.69
2023-02-20T01:02:22.117Z,-1.77
2023-02-20T01:04:51.498Z,-1.57
2023-02-20T01:07:20.083Z,-1.19
2023-02-20T01:09:48.294Z,-1.08
2023-02-20T01:12:17.265Z,-1.27
2023-02-20T01:14:46.282Z,-1.39
2023-02-20T01:17:15.135Z,-1.56
2023-02-20T01:19:44.659Z,-1.64
2023-02-20T01:22:13.044Z,-1.75
2023-02-20T01:24:43.751Z,-1.83
2023-02-20T01:27:11.949Z,-1.74
2023-02-20T01:29:40.227Z,-1.30
2023-02-20T01:32:13.774Z,-1.24
2023-02-20T01:34:43.097Z,-1.45
2023-02-20T01:37:14.203Z,-1.48
2023-02-20T01:39:42.420Z,-1.68
2023-02-20T01:42:13.573Z,-1.79
2023-02-20T01:44:42.649Z,-1.88
2023-02-20T01:47:22.378Z,-1.90
2023-02-20T01:49:53.741Z,-1.41
2023-02-20T01:52:25.245Z,-1.26
2023-02-20T01:54:57.649Z,-1.28
2023-02-20T01:57:26.999Z,-1.47
2023-02-20T01:59:58.312Z,-1.68
2023-02-20T02:02:27.824Z,-1.79
2023-02-20T02:04:56.029Z,-1.96
2023-02-20T02:07:25.201Z,-2.05
2023-02-20T02:09:56.547Z,-1.94
2023-02-20T02:12:24.812Z,-1.43
2023-02-20T02:14:53.088Z,-1.32
2023-02-20T02:17:45.320Z,-1.51
2023-02-20T02:20:57.411Z,-1.66
2023-02-20T02:24:05.039Z,-1.80
2023-02-20T02:27:08.417Z,-2.06
2023-02-20T02:29:58.725Z,-2.17
2023-02-20T02:32:50.334Z,-2.19
2023-02-20T02:35:27.558Z,-1.72
2023-02-20T02:38:14.943Z,-1.59
2023-02-20T02:40:52.183Z,-1.66
2023-02-20T02:43:51.552Z,-1.78
2023-02-20T02:46:32.212Z,-2.00
2023-02-20T02:49:09.693Z,-2.13
2023-02-20T02:51:39.819Z,-2.20
2023-02-20T02:54:19.916Z,-2.31
2023-02-20T02:56:48.486Z,-2.43
2023-02-20T02:59:25.567Z,-2.51
2023-02-20T03:01:58.516Z,-2.14
2023-02-20T03:04:30.682Z,-1.65
2023-02-20T03:07:07.819Z,-1.64
2023-02-20T03:09:42.934Z,-1.80
2023-02-20T03:12:11.281Z,-1.99
2023-02-20T03:15:22.771Z,-2.17
2023-02-20T03:18:11.936Z,-2.29
2023-02-20T03:20:53.840Z,-2.38
2023-02-20T03:23:24.985Z,-2.52
2023-02-20T03:25:55.117Z,-2.60
2023-02-20T03:28:29.114Z,-2.65
2023-02-20T03:31:01.417Z,-2.62
2023-02-20T03:33:52.283Z,-2.46
2023-02-20T03:36:46.176Z,-1.82
2023-02-20T03:39:37.173Z,-1.61
2023-02-20T03:42:26.031Z,-1.74
2023-02-20T03:45:00.166Z,-1.85
2023-02-20T03:47:29.453Z,-2.02
2023-02-20T03:50:17.278Z,-2.17
2023-02-20T03:52:45.780Z,-2.33
2023-02-20T03:55:14.333Z,-2.44
2023-02-20T03:57:45.552Z,-2.55
2023-02-20T04:00:21.640Z,-2.56
2023-02-20T04:02:57.302Z,-2.04
2023-02-20T04:05:30.595Z,-1.63
2023-02-20T04:08:12.987Z,-1.70
2023-02-20T04:10:47.211Z,-1.84
2023-02-20T04:13:16.711Z,-2.01
2023-02-20T04:15:47.653Z,-2.16
2023-02-20T04:18:18.461Z,-2.29
2023-02-20T04:20:48.067Z,-2.05
2023-02-20T04:23:32.848Z,-1.55
2023-02-20T04:26:19.165Z,-1.48
2023-02-20T04:28:48.901Z,-1.61
2023-02-20T04:31:18.679Z,-1.83
2023-02-20T04:33:47.668Z,-1.94
2023-02-20T04:36:20.756Z,-2.13
2023-02-20T04:38:49.549Z,-1.79
2023-02-20T04:41:19.752Z,-1.47
2023-02-20T04:43:49.570Z,-1.58
2023-02-20T04:46:19.336Z,-1.72
2023-02-20T04:48:48.077Z,-1.97
2023-02-20T04:51:17.001Z,-2.11
2023-02-20T04:53:45.338Z,-1.98
2023-02-20T04:56:16.897Z,-1.62
2023-02-20T04:58:49.449Z,-1.50
2023-02-20T05:01:21.566Z,-1.68
2023-02-20T05:03:50.111Z,-1.89
2023-02-20T05:06:18.589Z,-2.09
2023-02-20T05:08:49.907Z,-2.25
2023-02-20T05:11:18.832Z,-2.03
2023-02-20T05:13:47.306Z,-1.61
2023-02-20T05:16:15.929Z,-1.56
2023-02-20T05:18:45.904Z,-1.67
2023-02-20T05:21:33.880Z,-1.89
2023-02-20T05:24:04.506Z,-2.01
2023-02-20T05:26:34.802Z,-2.12
2023-02-20T05:29:03.195Z,-2.08
2023-02-20T05:31:31.837Z,-1.59
2023-02-20T05:34:02.132Z,-1.52
2023-02-20T05:36:31.074Z,-1.65
2023-02-20T05:39:00.270Z,-1.80
2023-02-20T05:41:28.653Z,-1.83
2023-02-20T05:43:57.951Z,-2.01
2023-02-20T05:46:26.647Z,-2.02
2023-02-20T05:48:55.125Z,-1.66
2023-02-20T05:51:25.336Z,-1.43
2023-02-20T05:53:53.818Z,-1.43
2023-02-20T05:56:22.400Z,-1.53
2023-02-20T05:58:50.779Z,-1.66
2023-02-20T06:01:25.917Z,-1.73
2023-02-20T06:03:54.321Z,-1.83
2023-02-20T06:06:22.773Z,-1.65
2023-02-20T06:08:51.354Z,-1.26
2023-02-20T06:11:19.636Z,-1.00
2023-02-20T06:13:49.134Z,-1.09
2023-02-20T06:16:28.525Z,-1.17
2023-02-20T06:18:57.674Z,-1.26
2023-02-20T06:21:26.569Z,-1.30
2023-02-20T06:23:54.959Z,-1.34
2023-02-20T06:26:23.734Z,-1.31
2023-02-20T06:28:54.552Z,-1.06
2023-02-20T06:31:25.528Z,-0.73
2023-02-20T06:33:54.085Z,-0.63
2023-02-20T06:36:31.085Z,-0.57
2023-02-20T06:38:59.654Z,-0.59
2023-02-20T06:41:28.029Z,-0.75
2023-02-20T06:43:56.525Z,-0.82
2023-02-20T06:46:24.925Z,-0.88
2023-02-20T06:48:57.383Z,-0.85
2023-02-20T06:51:30.979Z,-0.83
2023-02-20T06:53:59.786Z,-0.75
2023-02-20T06:56:29.980Z,-0.23
2023-02-20T06:59:00.518Z,0.04
2023-02-20T07:01:31.147Z,-0.02
2023-02-20T07:04:01.204Z,-0.13
2023-02-20T07:06:31.321Z,-0.16
2023-02-20T07:08:59.961Z,-0.13
2023-02-20T07:11:28.540Z,-0.24
2023-02-20T07:13:58.800Z,-0.23
2023-02-20T07:16:27.139Z,-0.25
2023-02-20T07:18:59.716Z,-0.19
2023-02-20T07:21:28.133Z,-0.24
2023-02-20T07:23:56.678Z,-0.23
2023-02-20T07:26:27.754Z,-0.30
2023-02-20T07:28:58.781Z,-0.39
2023-02-20T07:31:28.312Z,-0.12
2023-02-20T07:33:57.873Z,0.61
2023-02-20T07:36:26.353Z,0.72
2023-02-20T07:39:00.250Z,0.55
2023-02-20T07:41:31.664Z,0.44
2023-02-20T07:44:00.288Z,0.18
2023-02-20T07:46:34.265Z,0.07
2023-02-20T07:49:03.808Z,-0.12
2023-02-20T07:51:32.646Z,-0.25
2023-02-20T07:54:01.411Z,-0.17
2023-02-20T07:56:30.068Z,0.25
2023-02-20T07:59:00.639Z,0.54
2023-02-20T08:01:30.107Z,0.43
2023-02-20T08:03:58.473Z,0.40
2023-02-20T08:06:29.317Z,0.33
2023-02-20T08:08:57.616Z,0.12
2023-02-20T08:11:26.581Z,0.03
2023-02-20T08:13:55.975Z,-0.02
2023-02-20T08:16:25.120Z,0.35
2023-02-20T08:18:53.789Z,0.49
2023-02-20T08:21:23.473Z,0.19
2023-02-20T08:23:52.888Z,0.04
2023-02-20T08:26:21.451Z,-0.20
2023-02-20T08:28:50.468Z,-0.16
2023-02-20T08:31:31.116Z,0.03
2023-02-20T08:34:00.778Z,0.51
2023-02-20T08:36:29.716Z,0.57
2023-02-20T08:39:00.493Z,0.54
2023-02-20T08:41:29.138Z,0.20
2023-02-20T08:43:57.541Z,0.20
2023-02-20T08:46:26.022Z,0.14
2023-02-20T08:48:54.572Z,0.18
2023-02-20T08:51:23.465Z,0.51
2023-02-20T08:53:56.347Z,0.70
2023-02-20T08:56:25.136Z,0.50
2023-02-20T08:58:54.023Z,0.31
2023-02-20T09:01:23.125Z,0.14
2023-02-20T09:03:51.702Z,0.06
2023-02-20T09:06:20.188Z,0.27
2023-02-20T09:08:48.873Z,0.76
2023-02-20T09:11:22.595Z,1.14
2023-02-20T09:13:51.994Z,1.16
2023-02-20T09:16:21.962Z,0.79
2023-02-20T09:18:50.985Z,0.59
2023-02-20T09:21:19.709Z,0.41
2023-02-20T09:23:49.235Z,0.32
2023-02-20T09:26:18.066Z,0.04
2023-02-20T09:28:47.983Z,0.10
2023-02-20T09:31:17.040Z,0.43
2023-02-20T09:33:51.120Z,0.52
2023-02-20T09:36:19.735Z,0.66
2023-02-20T09:38:48.184Z,0.52
2023-02-20T09:41:43.158Z,0.33
2023-02-20T09:44:17.010Z,0.27
2023-02-20T09:46:46.363Z,0.22
2023-02-20T09:49:17.306Z,0.39
2023-02-20T09:51:50.283Z,0.40
2023-02-20T09:54:26.957Z,0.40
2023-02-20T09:57:01.207Z,0.47
2023-02-20T09:59:33.859Z,0.16
2023-02-20T10:02:17.988Z,-0.04
2023-02-20T10:05:01.202Z,0.17
2023-02-20T10:07:36.582Z,0.87
2023-02-20T10:10:21.495Z,0.97
2023-02-20T10:13:28.018Z,0.89
2023-02-20T10:16:02.657Z,0.69
2023-02-20T10:18:57.472Z,0.51
2023-02-20T10:21:35.259Z,0.66
2023-02-20T10:24:46.845Z,1.08
2023-02-20T10:27:47.506Z,1.03
2023-02-20T10:30:21.056Z,0.78
2023-02-20T10:32:51.315Z,0.47
2023-02-20T10:35:25.408Z,0.34
2023-02-20T10:37:56.279Z,0.55
2023-02-20T10:40:48.161Z,0.95
2023-02-20T10:43:22.820Z,0.87
2023-02-20T10:46:00.176Z,0.85
2023-02-20T10:48:30.382Z,0.71
2023-02-20T10:51:12.796Z,0.61
2023-02-20T10:53:47.429Z,0.76
2023-02-20T10:56:46.941Z,1.22
2023-02-20T10:59:23.942Z,1.35
2023-02-20T11:01:56.347Z,1.38
2023-02-20T11:04:31.273Z,1.35
2023-02-20T11:07:02.687Z,1.32
2023-02-20T11:09:31.346Z,1.23
2023-02-20T11:12:02.692Z,1.34
2023-02-20T11:14:40.722Z,1.67
2023-02-20T11:17:19.348Z,1.77
2023-02-20T11:19:49.400Z,1.77
2023-02-20T11:22:18.835Z,1.63
2023-02-20T11:24:47.095Z,1.48
2023-02-20T11:27:22.918Z,1.48
2023-02-20T11:30:05.413Z,1.49
2023-02-20T11:32:40.247Z,1.42
2023-02-20T11:35:19.359Z,1.53
2023-02-20T11:37:55.463Z,2.01
2023-02-20T11:40:34.120Z,2.14
2023-02-20T11:43:14.820Z,2.07
2023-02-20T11:45:43.273Z,1.92
2023-02-20T11:48:14.873Z,1.80
2023-02-20T11:50:48.689Z,1.68
2023-02-20T11:53:22.228Z,1.63
2023-02-20T11:56:11.517Z,1.68
2023-02-20T11:58:40.490Z,1.63
2023-02-20T12:01:34.595Z,1.91
2023-02-20T12:04:02.847Z,2.16
2023-02-20T12:06:34.389Z,2.15
2023-02-20T12:09:03.327Z,2.04
2023-02-20T12:11:31.761Z,1.92
2023-02-20T12:14:01.671Z,1.81
2023-02-20T12:16:51.862Z,1.78
2023-02-20T12:19:48.914Z,1.80
2023-02-20T12:22:17.305Z,1.79
2023-02-20T12:25:12.091Z,1.82
2023-02-20T12:28:10.385Z,2.25
2023-02-20T12:30:49.502Z,2.73
2023-02-20T12:33:53.513Z,2.75
2023-02-20T12:36:41.149Z,2.60
2023-02-20T12:39:24.908Z,2.41
2023-02-20T12:42:51.214Z,2.34
2023-02-20T12:45:38.953Z,2.28
2023-02-20T12:48:45.012Z,2.27
2023-02-20T12:51:41.980Z,2.21
2023-02-20T12:54:33.116Z,2.18
2023-02-20T12:57:29.916Z,2.14
2023-02-20T13:00:15.863Z,2.08
2023-02-20T13:02:47.008Z,2.04
2023-02-20T13:05:20.988Z,2.04
2023-02-20T13:07:57.709Z,2.04
2023-02-20T13:10:28.191Z,2.06
2023-02-20T13:12:57.456Z,2.05
2023-02-20T13:15:48.470Z,2.04
2023-02-20T13:18:42.140Z,2.06
2023-02-20T13:21:12.467Z,2.07
2023-02-20T13:23:42.193Z,2.13
2023-02-20T13:26:32.908Z,2.14
2023-02-20T13:29:22.866Z,2.12
2023-02-20T13:32:31.004Z,2.14
2023-02-20T13:35:40.958Z,2.18
2023-02-20T13:38:17.483Z,2.17
2023-02-20T13:41:02.979Z,2.20
2023-02-20T13:43:36.806Z,2.22
2023-02-20T13:46:12.907Z,2.23
2023-02-20T13:48:43.674Z,2.18
2023-02-20T13:51:15.489Z,2.19
2023-02-20T13:54:38.388Z,2.20
2023-02-20T13:57:14.606Z,2.10
2023-02-20T13:59:42.951Z,1.97
2023-02-20T14:02:17.704Z,1.83
2023-02-20T14:05:01.049Z,1.73
2023-02-20T14:07:44.518Z,1.71
2023-02-20T14:10:37.079Z,1.73
2023-02-20T14:13:13.017Z,1.72
2023-02-20T14:23:26.193Z,1.86
2023-02-20T14:26:01.413Z,1.86
2023-02-20T14:28:31.024Z,1.84
2023-02-20T14:31:04.870Z,1.87
2023-02-20T14:33:33.946Z,1.86
2023-02-20T14:36:12.600Z,1.85
2023-02-20T14:38:47.483Z,1.86
2023-02-20T14:41:23.838Z,1.82
2023-02-20T14:43:59.903Z,1.78
2023-02-20T14:46:38.221Z,1.74
2023-02-20T14:49:16.840Z,1.56
2023-02-20T14:51:45.837Z,1.30
2023-02-20T14:54:14.358Z,1.40
2023-02-20T14:56:43.306Z,1.76
2023-02-20T14:59:33.599Z,1.73
2023-02-20T15:02:33.243Z,1.49
2023-02-20T15:05:06.938Z,1.27
2023-02-20T15:07:39.034Z,1.00
2023-02-20T15:10:41.766Z,0.81
2023-02-20T15:13:16.180Z,0.79
2023-02-20T15:15:52.615Z,1.43
2023-02-20T15:18:36.305Z,1.78
2023-02-20T15:21:05.586Z,1.65
2023-02-20T15:23:35.651Z,1.42
2023-02-20T15:26:28.554Z,1.15
2023-02-20T15:29:13.727Z,0.89
2023-02-20T15:31:42.116Z,0.77
2023-02-20T15:34:18.691Z,1.13
2023-02-20T15:36:49.699Z,1.70
2023-02-20T15:39:18.171Z,1.70
2023-02-20T15:41:47.457Z,1.40
2023-02-20T15:44:16.285Z,1.17
2023-02-20T15:46:44.497Z,0.92
2023-02-20T15:49:20.458Z,0.77
2023-02-20T15:51:52.346Z,1.12
2023-02-20T15:54:22.607Z,1.47
2023-02-20T15:56:51.826Z,1.40
2023-02-20T15:59:20.482Z,1.08
2023-02-20T16:01:48.952Z,0.90
2023-02-20T16:04:17.878Z,0.63
2023-02-20T16:06:48.960Z,0.92
2023-02-20T16:09:17.789Z,1.24
2023-02-20T16:11:47.006Z,1.14
2023-02-20T16:14:25.418Z,0.92
2023-02-20T16:16:55.103Z,0.61
2023-02-20T16:19:33.383Z,0.78
2023-02-20T16:22:06.935Z,1.15
2023-02-20T16:24:36.651Z,1.08
2023-02-20T16:27:21.735Z,1.01
2023-02-20T16:29:55.318Z,0.76
2023-02-20T16:32:28.881Z,0.74
2023-02-20T16:34:58.905Z,1.22
2023-02-20T16:37:29.442Z,1.32
2023-02-20T16:39:57.724Z,1.02
2023-02-20T16:42:34.819Z,0.80
2023-02-20T16:45:09.025Z,0.60
2023-02-20T16:47:37.730Z,1.08
2023-02-20T16:50:17.169Z,1.11
2023-02-20T16:52:45.925Z,0.96
2023-02-20T16:55:24.955Z,0.82
2023-02-20T16:57:53.961Z,1.18
2023-02-20T17:00:56.664Z,1.39
2023-02-20T17:03:28.903Z,1.25
2023-02-20T17:06:00.755Z,0.97
2023-02-20T17:08:30.059Z,0.94
2023-02-20T17:10:59.460Z,1.42
2023-02-20T17:13:30.908Z,1.51
2023-02-20T17:15:59.673Z,1.37
2023-02-20T17:18:29.104Z,1.22
2023-02-20T17:20:58.910Z,1.42
2023-02-20T17:23:27.801Z,1.64
2023-02-20T17:25:56.294Z,1.56
2023-02-20T17:28:25.379Z,1.35
2023-02-20T17:30:54.778Z,1.12
2023-02-20T17:33:26.847Z,1.43
2023-02-20T17:35:57.674Z,1.68
2023-02-20T17:38:26.202Z,1.50
2023-02-20T17:41:00.283Z,1.38
2023-02-20T17:43:28.967Z,1.28
2023-02-20T17:45:57.803Z,1.69
2023-02-20T17:48:27.659Z,1.89
2023-02-20T17:50:56.037Z,1.78
2023-02-20T17:53:25.083Z,1.51
2023-02-20T17:55:58.432Z,1.37
2023-02-20T17:58:27.051Z,1.82
2023-02-20T18:00:55.606Z,2.00
2023-02-20T18:03:28.298Z,1.80
2023-02-20T18:05:57.470Z,1.64
2023-02-20T18:08:27.172Z,1.54
2023-02-20T18:10:55.674Z,1.79
2023-02-20T18:13:24.991Z,2.08
2023-02-20T18:15:53.948Z,1.90
2023-02-20T18:18:26.453Z,1.72
2023-02-20T18:21:00.080Z,1.51
2023-02-20T18:23:28.507Z,1.73
2023-02-20T18:26:05.190Z,2.05
2023-02-20T18:28:36.943Z,1.97
2023-02-20T18:31:06.107Z,1.81
2023-02-20T18:33:34.619Z,1.68
2023-02-20T18:36:08.199Z,1.96
2023-02-20T18:38:48.899Z,2.23
2023-02-20T18:41:22.695Z,2.18
2023-02-20T18:43:53.736Z,1.98
2023-02-20T18:46:29.358Z,1.74
2023-02-20T18:49:23.508Z,1.84
2023-02-20T18:51:57.665Z,2.40
2023-02-20T18:54:34.634Z,2.40
2023-02-20T18:57:07.152Z,2.20
2023-02-20T18:59:50.763Z,1.99
2023-02-20T19:02:22.815Z,2.13
2023-02-20T19:04:52.385Z,2.59
2023-02-20T19:07:21.341Z,2.65
2023-02-20T19:09:54.583Z,2.56
2023-02-20T19:12:23.841Z,2.35
2023-02-20T19:14:52.409Z,2.42
2023-02-20T19:17:21.826Z,2.83
2023-02-20T19:19:50.802Z,2.96
2023-02-20T19:22:19.892Z,2.79
2023-02-20T19:24:49.095Z,2.57
2023-02-20T19:27:21.153Z,2.59
2023-02-20T19:29:50.142Z,2.99
2023-02-20T19:32:22.113Z,3.11
2023-02-20T19:34:50.592Z,2.94
2023-02-20T19:37:19.994Z,2.76
2023-02-20T19:39:51.545Z,2.85
2023-02-20T19:42:25.712Z,3.24
2023-02-20T19:44:58.861Z,3.30
2023-02-20T19:47:27.842Z,3.12
2023-02-20T19:49:57.152Z,2.96
2023-02-20T19:52:25.942Z,3.14
2023-02-20T19:54:54.616Z,3.43
2023-02-20T19:57:25.411Z,3.46
2023-02-20T20:00:01.436Z,3.29
2023-02-20T20:02:31.267Z,3.21
2023-02-20T20:04:59.816Z,3.56
2023-02-20T20:07:29.022Z,3.71
2023-02-20T20:09:59.117Z,3.63
2023-02-20T20:12:46.340Z,3.43
2023-02-20T20:15:22.260Z,3.58
2023-02-20T20:17:54.269Z,3.77
2023-02-20T20:20:23.981Z,3.69
2023-02-20T20:22:53.166Z,3.47
2023-02-20T20:25:21.740Z,3.57
2023-02-20T20:27:51.246Z,3.86
2023-02-20T20:30:22.051Z,3.85
2023-02-20T20:32:53.737Z,3.68
2023-02-20T20:35:23.652Z,3.54
2023-02-20T20:37:53.996Z,3.82
2023-02-20T20:40:23.379Z,3.91
2023-02-20T20:42:55.185Z,3.82
2023-02-20T20:45:23.932Z,3.60
2023-02-20T20:47:52.302Z,3.82
2023-02-20T20:50:23.016Z,3.95
2023-02-20T20:52:52.578Z,3.89
2023-02-20T20:55:21.026Z,3.77
2023-02-20T20:57:52.060Z,3.88
2023-02-20T21:00:23.792Z,3.97
2023-02-20T21:02:53.177Z,3.85
2023-02-20T21:05:23.545Z,3.71
2023-02-20T21:07:52.129Z,3.97
2023-02-20T21:10:21.327Z,3.93
2023-02-20T21:12:49.712Z,3.79
2023-02-20T21:15:20.575Z,3.63
2023-02-20T21:17:49.021Z,3.42
2023-02-20T21:20:22.283Z,3.85
2023-02-20T21:22:53.584Z,4.21
2023-02-20T21:25:27.060Z,4.22
2023-02-20T21:27:56.561Z,4.00
2023-02-20T21:30:25.893Z,3.80
2023-02-20T21:32:54.345Z,3.62
2023-02-20T21:35:23.425Z,3.55
2023-02-20T21:37:51.820Z,3.99
2023-02-20T21:40:20.620Z,4.45
2023-02-20T21:43:07.636Z,4.40
2023-02-20T21:45:36.741Z,4.32
2023-02-20T21:48:05.605Z,4.06
2023-02-20T21:50:34.710Z,3.91
2023-02-20T21:53:05.227Z,3.71
2023-02-20T21:55:34.156Z,4.13
2023-02-20T21:58:02.400Z,4.53
2023-02-20T22:00:31.179Z,4.63
2023-02-20T22:02:59.654Z,4.44
2023-02-20T22:05:27.958Z,4.30
2023-02-20T22:08:15.168Z,4.11
2023-02-20T22:11:02.583Z,4.03
2023-02-20T22:13:49.707Z,4.58
2023-02-20T22:16:38.984Z,4.91
2023-02-20T22:19:26.193Z,4.74
2023-02-20T22:22:14.027Z,4.64
2023-02-20T22:25:01.253Z,4.43
2023-02-20T22:27:48.258Z,4.25
2023-02-20T22:30:35.496Z,4.17
2023-02-20T22:33:23.548Z,4.75
2023-02-20T22:36:10.716Z,5.16
2023-02-20T22:38:58.194Z,5.10
2023-02-20T22:41:45.402Z,4.89
2023-02-20T22:44:32.112Z,4.72
2023-02-20T22:47:19.343Z,4.58
2023-02-20T22:50:06.646Z,4.49
2023-02-20T22:52:54.487Z,5.06
2023-02-20T22:55:41.704Z,5.47
2023-02-20T22:58:29.233Z,5.38
2023-02-20T23:01:17.197Z,5.25
2023-02-20T23:04:04.389Z,5.05
2023-02-20T23:06:51.604Z,4.88
2023-02-20T23:09:38.517Z,4.78
2023-02-20T23:15:08.891Z,5.70
2023-02-20T23:18:02.631Z,5.58
2023-02-20T23:20:50.063Z,5.42
2023-02-20T23:23:41.601Z,5.18
2023-02-20T23:26:30.546Z,5.02
2023-02-20T23:29:17.457Z,5.02
2023-02-20T23:32:04.698Z,5.56
2023-02-20T23:34:51.904Z,5.91
2023-02-20T23:37:43.302Z,5.79
2023-02-20T23:40:36.448Z,5.46
2023-02-20T23:43:24.629Z,5.21
2023-02-20T23:46:12.533Z,5.07
2023-02-20T23:48:59.756Z,4.99
2023-02-20T23:51:46.683Z,5.58
2023-02-20T23:54:33.891Z,5.94
2023-02-20T23:57:22.146Z,5.84
